createdAt,value
2018-07-24T00:00:46.307Z,20.32
2018-07-24T00:01:46.297Z,20.35
2018-07-24T00:02:46.286Z,20.50
2018-07-24T00:03:46.271Z,20.62
2018-07-24T00:04:46.259Z,20.80
2018-07-24T00:05:46.251Z,20.74
2018-07-24T00:06:46.238Z,20.80
2018-07-24T00:07:46.230Z,20.84
2018-07-24T00:08:46.211Z,20.97
2018-07-24T00:09:46.198Z,20.99
2018-07-24T00:10:46.187Z,20.98
2018-07-24T00:11:46.176Z,20.94
2018-07-24T00:12:46.164Z,20.82
2018-07-24T00:13:46.152Z,20.72
2018-07-24T00:14:46.144Z,20.43
2018-07-24T00:15:46.127Z,20.29
2018-07-24T00:16:46.114Z,20.16
2018-07-24T00:17:46.104Z,19.99
2018-07-24T00:18:46.094Z,19.87
2018-07-24T00:19:46.084Z,19.88
2018-07-24T00:20:46.067Z,19.84
2018-07-24T00:21:46.060Z,19.88
2018-07-24T00:22:46.050Z,19.96
2018-07-24T00:23:46.065Z,20.02
2018-07-24T00:24:46.025Z,20.10
2018-07-24T00:25:46.007Z,20.26
2018-07-24T00:26:45.993Z,20.42
2018-07-24T00:27:45.983Z,20.50
2018-07-24T00:28:45.973Z,20.61
2018-07-24T00:29:45.956Z,20.62
2018-07-24T00:30:45.948Z,20.72
2018-07-24T00:31:45.934Z,20.69
2018-07-24T00:32:45.928Z,20.70
2018-07-24T00:33:45.908Z,20.64
2018-07-24T00:34:45.900Z,20.72
2018-07-24T00:35:45.885Z,20.67
2018-07-24T00:36:45.872Z,20.74
2018-07-24T00:37:45.860Z,20.73
2018-07-24T00:38:45.846Z,20.64
2018-07-24T00:39:45.835Z,20.67
2018-07-24T00:40:45.823Z,20.73
2018-07-24T00:41:45.814Z,20.67
2018-07-24T00:42:45.799Z,20.80
2018-07-24T00:43:45.796Z,20.87
2018-07-24T00:44:45.775Z,20.82
2018-07-24T00:45:45.773Z,20.88
2018-07-24T00:46:45.762Z,20.88
2018-07-24T00:47:45.742Z,20.79
2018-07-24T00:48:45.727Z,20.80
2018-07-24T00:49:45.716Z,20.73
2018-07-24T00:50:45.702Z,20.69
2018-07-24T00:51:45.693Z,20.55
2018-07-24T00:52:45.677Z,20.48
2018-07-24T00:53:45.664Z,20.48
2018-07-24T00:54:45.652Z,20.51
2018-07-24T00:55:45.640Z,20.50
2018-07-24T00:56:45.628Z,20.42
2018-07-24T00:57:45.616Z,20.43
2018-07-24T00:58:45.612Z,20.43
2018-07-24T00:59:45.591Z,20.38
2018-07-24T01:00:45.580Z,20.21
2018-07-24T01:01:45.573Z,20.06
2018-07-24T01:02:45.555Z,19.94
2018-07-24T01:03:45.542Z,19.92
2018-07-24T01:04:45.529Z,19.88
2018-07-24T01:05:45.519Z,20.13
2018-07-24T01:06:45.506Z,20.01
2018-07-24T01:07:45.494Z,20.16
2018-07-24T01:08:45.491Z,20.20
2018-07-24T01:09:45.476Z,20.13
2018-07-24T01:10:45.457Z,20.10
2018-07-24T01:11:45.444Z,19.91
2018-07-24T01:12:45.443Z,19.94
2018-07-24T01:13:45.422Z,19.88
2018-07-24T01:14:45.409Z,19.80
2018-07-24T01:15:45.396Z,19.84
2018-07-24T01:16:45.393Z,19.80
2018-07-24T01:17:45.377Z,19.65
2018-07-24T01:18:45.360Z,19.66
2018-07-24T01:19:45.344Z,19.54
2018-07-24T01:20:45.331Z,19.58
2018-07-24T01:21:45.319Z,19.55
2018-07-24T01:22:45.305Z,19.55
2018-07-24T01:23:45.294Z,19.62
2018-07-24T01:24:45.281Z,19.44
2018-07-24T01:25:45.275Z,19.31
2018-07-24T01:26:45.258Z,19.04
2018-07-24T01:27:45.247Z,18.98
2018-07-24T01:28:45.236Z,18.94
2018-07-24T01:29:45.219Z,18.87
2018-07-24T01:30:45.217Z,18.84
2018-07-24T01:31:45.194Z,18.81
2018-07-24T01:32:45.193Z,18.80
2018-07-24T01:33:45.178Z,18.85
2018-07-24T01:34:45.157Z,18.87
2018-07-24T01:35:45.145Z,18.98
2018-07-24T01:36:45.132Z,19.19
2018-07-24T01:37:45.123Z,19.21
2018-07-24T01:38:45.108Z,19.31
2018-07-24T01:39:45.095Z,19.37
2018-07-24T01:40:45.082Z,19.44
2018-07-24T01:41:45.071Z,19.51
2018-07-24T01:42:45.059Z,19.63
2018-07-24T01:43:45.046Z,19.63
2018-07-24T01:44:45.032Z,19.66
2018-07-24T01:45:45.020Z,19.59
2018-07-24T01:46:45.008Z,19.51
2018-07-24T01:47:44.994Z,19.44
2018-07-24T01:48:44.981Z,19.41
2018-07-24T01:49:44.975Z,19.43
2018-07-24T01:50:44.955Z,19.48
2018-07-24T01:51:44.944Z,19.50
2018-07-24T01:52:44.931Z,19.44
2018-07-24T01:53:44.918Z,19.48
2018-07-24T01:54:44.905Z,19.63
2018-07-24T01:55:44.896Z,19.59
2018-07-24T01:56:44.882Z,19.63
2018-07-24T01:57:44.868Z,19.56
2018-07-24T01:58:44.855Z,19.54
2018-07-24T01:59:44.851Z,19.68
2018-07-24T02:00:44.832Z,19.65
2018-07-24T02:01:44.827Z,19.73
2018-07-24T02:02:44.804Z,19.74
2018-07-24T02:03:44.791Z,19.74
2018-07-24T02:04:44.779Z,19.63
2018-07-24T02:05:44.766Z,19.55
2018-07-24T02:06:44.753Z,19.26
2018-07-24T02:07:44.740Z,19.19
2018-07-24T02:08:44.729Z,19.10
2018-07-24T02:09:44.715Z,19.07
2018-07-24T02:10:44.702Z,19.02
2018-07-24T02:11:44.693Z,19.06
2018-07-24T02:12:44.677Z,19.08
2018-07-24T02:13:44.666Z,19.00
2018-07-24T02:14:44.655Z,18.95
2018-07-24T02:15:44.638Z,18.84
2018-07-24T02:16:44.629Z,18.73
2018-07-24T02:17:44.614Z,18.73
2018-07-24T02:18:44.600Z,18.62
2018-07-24T02:19:44.589Z,18.67
2018-07-24T02:20:44.583Z,18.60
2018-07-24T02:21:44.563Z,18.54
2018-07-24T02:22:44.550Z,18.65
2018-07-24T02:23:44.540Z,18.65
2018-07-24T02:24:44.528Z,18.70
2018-07-24T02:25:44.516Z,18.73
2018-07-24T02:26:44.500Z,18.76
2018-07-24T02:27:44.485Z,18.88
2018-07-24T02:28:44.477Z,18.95
2018-07-24T02:29:44.465Z,18.98
2018-07-24T02:30:44.451Z,19.13
2018-07-24T02:31:44.445Z,19.23
2018-07-24T02:32:44.431Z,19.40
2018-07-24T02:33:44.416Z,19.36
2018-07-24T02:34:44.402Z,19.46
2018-07-24T02:35:44.383Z,19.41
2018-07-24T02:36:44.371Z,19.61
2018-07-24T02:37:44.360Z,19.55
2018-07-24T02:38:44.345Z,19.61
2018-07-24T02:39:44.333Z,19.62
2018-07-24T02:40:44.319Z,19.62
2018-07-24T02:41:44.311Z,19.76
2018-07-24T02:42:44.292Z,19.69
2018-07-24T02:43:44.281Z,19.74
2018-07-24T02:44:44.268Z,19.78
2018-07-24T02:45:44.257Z,19.61
2018-07-24T02:46:44.242Z,19.50
2018-07-24T02:47:44.232Z,19.43
2018-07-24T02:48:44.217Z,19.32
2018-07-24T02:49:44.207Z,19.28
2018-07-24T02:50:44.194Z,19.28
2018-07-24T02:51:44.181Z,19.16
2018-07-24T02:52:44.166Z,19.08
2018-07-24T02:53:44.152Z,18.99
2018-07-24T02:54:44.140Z,18.92
2018-07-24T02:55:44.130Z,18.80
2018-07-24T02:56:44.113Z,18.67
2018-07-24T02:57:44.101Z,18.57
2018-07-24T02:58:44.089Z,18.70
2018-07-24T02:59:44.075Z,18.60
2018-07-24T03:00:44.062Z,18.69
2018-07-24T03:01:44.049Z,18.80
2018-07-24T03:02:44.037Z,18.85
2018-07-24T03:03:44.022Z,18.88
2018-07-24T03:04:44.018Z,18.84
2018-07-24T03:05:43.998Z,18.90
2018-07-24T03:06:43.985Z,18.94
2018-07-24T03:07:43.973Z,18.95
2018-07-24T03:08:43.958Z,19.06
2018-07-24T03:09:43.946Z,19.04
2018-07-24T03:10:43.931Z,19.07
2018-07-24T03:11:43.919Z,19.21
2018-07-24T03:12:43.905Z,19.29
2018-07-24T03:13:43.893Z,19.31
2018-07-24T03:14:43.881Z,19.33
2018-07-24T03:15:43.868Z,19.14
2018-07-24T03:16:43.854Z,19.16
2018-07-24T03:17:43.845Z,18.92
2018-07-24T03:18:43.832Z,18.76
2018-07-24T03:19:43.825Z,18.81
2018-07-24T03:20:43.803Z,18.81
2018-07-24T03:21:43.794Z,18.76
2018-07-24T03:22:43.778Z,18.78
2018-07-24T03:23:43.763Z,18.82
2018-07-24T03:24:43.750Z,18.73
2018-07-24T03:25:43.739Z,18.65
2018-07-24T03:26:43.739Z,18.65
2018-07-24T03:27:43.711Z,18.69
2018-07-24T03:28:43.698Z,18.78
2018-07-24T03:29:43.686Z,18.78
2018-07-24T03:30:43.675Z,18.91
2018-07-24T03:31:43.659Z,18.88
2018-07-24T03:32:43.648Z,19.10
2018-07-24T03:33:43.634Z,19.08
2018-07-24T03:34:43.619Z,19.13
2018-07-24T03:35:43.605Z,19.22
2018-07-24T03:36:43.602Z,19.31
2018-07-24T03:37:43.581Z,19.33
2018-07-24T03:38:43.576Z,19.31
2018-07-24T03:39:43.684Z,19.28
2018-07-24T03:40:43.542Z,19.36
2018-07-24T03:41:43.532Z,19.37
2018-07-24T03:42:43.514Z,19.44
2018-07-24T03:43:43.500Z,19.33
2018-07-24T03:44:43.489Z,19.21
2018-07-24T03:45:43.475Z,19.06
2018-07-24T03:46:43.462Z,18.88
2018-07-24T03:47:43.449Z,18.87
2018-07-24T03:48:43.438Z,18.75
2018-07-24T03:49:43.431Z,18.75
2018-07-24T03:50:43.411Z,18.80
2018-07-24T03:51:43.397Z,18.81
2018-07-24T03:52:43.385Z,18.82
2018-07-24T03:53:43.373Z,18.90
2018-07-24T03:54:43.358Z,18.98
2018-07-24T03:55:43.346Z,19.04
2018-07-24T03:56:43.333Z,19.18
2018-07-24T03:57:43.321Z,19.04
2018-07-24T03:58:43.304Z,19.00
2018-07-24T03:59:43.302Z,18.94
2018-07-24T04:00:43.283Z,18.90
2018-07-24T04:01:43.273Z,18.75
2018-07-24T04:02:43.261Z,18.70
2018-07-24T04:03:43.238Z,18.67
2018-07-24T04:04:43.227Z,18.72
2018-07-24T04:05:43.214Z,18.66
2018-07-24T04:06:43.222Z,18.69
2018-07-24T04:07:43.189Z,18.73
2018-07-24T04:08:43.186Z,18.78
2018-07-24T04:09:43.164Z,18.76
2018-07-24T04:10:43.150Z,18.90
2018-07-24T04:11:43.141Z,18.90
2018-07-24T04:12:43.122Z,18.90
2018-07-24T04:13:43.111Z,19.00
2018-07-24T04:14:43.100Z,19.06
2018-07-24T04:15:43.083Z,19.13
2018-07-24T04:16:43.071Z,19.11
2018-07-24T04:17:43.066Z,19.14
2018-07-24T04:18:43.050Z,19.13
2018-07-24T04:19:43.032Z,18.95
2018-07-24T04:20:43.029Z,18.92
2018-07-24T04:21:43.006Z,18.99
2018-07-24T04:22:42.991Z,18.98
2018-07-24T04:23:42.981Z,19.02
2018-07-24T04:24:42.974Z,19.06
2018-07-24T04:25:42.952Z,19.14
2018-07-24T04:26:42.938Z,19.23
2018-07-24T04:27:42.936Z,19.21
2018-07-24T04:28:42.911Z,19.28
2018-07-24T04:29:42.897Z,19.26
2018-07-24T04:30:42.955Z,19.29
2018-07-24T04:31:42.879Z,19.37
2018-07-24T04:32:42.859Z,19.26
2018-07-24T04:33:42.846Z,19.18
2018-07-24T04:34:42.834Z,19.14
2018-07-24T04:35:42.820Z,19.06
2018-07-24T04:36:42.806Z,18.90
2018-07-24T04:37:42.797Z,18.91
2018-07-24T04:38:42.779Z,18.73
2018-07-24T04:39:42.772Z,18.92
2018-07-24T04:40:42.760Z,18.94
2018-07-24T04:41:42.742Z,19.08
2018-07-24T04:42:42.729Z,19.08
2018-07-24T04:43:42.716Z,19.13
2018-07-24T04:44:42.703Z,19.14
2018-07-24T04:45:42.689Z,19.18
2018-07-24T04:46:42.681Z,19.21
2018-07-24T04:47:42.662Z,19.31
2018-07-24T04:48:42.653Z,19.26
2018-07-24T04:49:42.638Z,19.36
2018-07-24T04:50:42.624Z,19.43
2018-07-24T04:51:42.612Z,19.55
2018-07-24T04:52:42.597Z,19.56
2018-07-24T04:53:42.587Z,19.66
2018-07-24T04:54:42.569Z,19.61
2018-07-24T04:55:42.558Z,19.77
2018-07-24T04:56:42.548Z,19.81
2018-07-24T04:57:42.530Z,19.83
2018-07-24T04:58:42.517Z,19.95
2018-07-24T04:59:42.508Z,19.91
2018-07-24T05:00:42.493Z,19.98
2018-07-24T05:01:42.479Z,20.08
2018-07-24T05:02:42.517Z,20.05
2018-07-24T05:03:42.452Z,20.03
2018-07-24T05:04:42.438Z,20.10
2018-07-24T05:05:42.426Z,19.95
2018-07-24T05:06:42.416Z,20.08
2018-07-24T05:07:42.400Z,20.11
2018-07-24T05:08:42.387Z,20.02
2018-07-24T05:09:42.456Z,20.02
2018-07-24T05:10:42.360Z,20.02
2018-07-24T05:11:42.347Z,20.18
2018-07-24T05:12:42.335Z,20.24
2018-07-24T05:13:42.321Z,20.26
2018-07-24T05:14:42.316Z,20.29
2018-07-24T05:15:42.295Z,20.33
2018-07-24T05:16:42.327Z,20.35
2018-07-24T05:17:42.270Z,20.38
2018-07-24T05:18:42.273Z,20.43
2018-07-24T05:19:42.249Z,20.48
2018-07-24T05:20:42.231Z,20.61
2018-07-24T05:21:42.219Z,20.57
2018-07-24T05:22:42.206Z,20.72
2018-07-24T05:23:42.193Z,20.69
2018-07-24T05:24:42.244Z,20.73
2018-07-24T05:25:42.206Z,20.74
2018-07-24T05:26:42.155Z,20.80
2018-07-24T05:27:42.141Z,20.77
2018-07-24T05:28:42.135Z,20.88
2018-07-24T05:29:42.117Z,20.82
2018-07-24T05:30:42.101Z,20.89
2018-07-24T05:31:42.089Z,20.92
2018-07-24T05:32:42.075Z,20.98
2018-07-24T05:33:42.068Z,21.01
2018-07-24T05:34:42.048Z,20.94
2018-07-24T05:35:42.037Z,20.95
2018-07-24T05:36:42.024Z,21.04
2018-07-24T05:37:42.011Z,21.01
2018-07-24T05:38:42.061Z,21.13
2018-07-24T05:39:41.985Z,21.13
2018-07-24T05:40:41.971Z,21.17
2018-07-24T05:41:41.960Z,21.16
2018-07-24T05:42:41.948Z,21.19
2018-07-24T05:43:41.934Z,21.27
2018-07-24T05:44:41.926Z,21.28
2018-07-24T05:45:41.911Z,21.31
2018-07-24T05:46:41.902Z,21.37
2018-07-24T05:47:41.881Z,21.34
2018-07-24T05:48:41.896Z,21.35
2018-07-24T05:49:41.857Z,21.42
2018-07-24T05:50:41.847Z,21.42
2018-07-24T05:51:41.836Z,21.44
2018-07-24T05:52:41.823Z,21.46
2018-07-24T05:53:41.810Z,21.43
2018-07-24T05:54:41.795Z,21.50
2018-07-24T05:55:41.782Z,21.50
2018-07-24T05:56:41.768Z,21.56
2018-07-24T05:57:41.760Z,21.61
2018-07-24T05:58:41.747Z,21.59
2018-07-24T05:59:41.730Z,21.61
2018-07-24T06:00:41.724Z,21.65
2018-07-24T06:01:41.707Z,21.82
2018-07-24T06:02:41.698Z,21.72
2018-07-24T06:03:41.680Z,21.84
2018-07-24T06:04:41.667Z,21.83
2018-07-24T06:05:41.655Z,21.91
2018-07-24T06:06:41.642Z,21.99
2018-07-24T06:07:41.632Z,22.06
2018-07-24T06:08:41.621Z,22.05
2018-07-24T06:09:41.606Z,22.05
2018-07-24T06:10:41.593Z,22.05
2018-07-24T06:11:41.580Z,22.14
2018-07-24T06:12:41.568Z,22.15
2018-07-24T06:13:41.557Z,22.17
2018-07-24T06:14:41.544Z,22.27
2018-07-24T06:15:41.531Z,22.30
2018-07-24T06:16:41.577Z,22.39
2018-07-24T06:17:41.506Z,22.39
2018-07-24T06:18:41.505Z,22.40
2018-07-24T06:19:41.483Z,22.52
2018-07-24T06:20:41.470Z,22.49
2018-07-24T06:21:41.466Z,22.54
2018-07-24T06:22:41.447Z,22.55
2018-07-24T06:23:41.487Z,22.62
2018-07-24T06:24:41.426Z,22.73
2018-07-24T06:25:41.409Z,22.72
2018-07-24T06:26:41.404Z,22.82
2018-07-24T06:27:41.387Z,22.79
2018-07-24T06:28:41.374Z,22.83
2018-07-24T06:29:41.361Z,22.94
2018-07-24T06:30:41.347Z,22.82
2018-07-24T06:31:41.337Z,22.95
2018-07-24T06:32:41.328Z,23.02
2018-07-24T06:33:41.312Z,23.07
2018-07-24T06:34:41.299Z,23.13
2018-07-24T06:35:41.286Z,23.17
2018-07-24T06:36:41.279Z,23.16
2018-07-24T06:37:41.264Z,23.23
2018-07-24T06:38:41.258Z,23.28
2018-07-24T06:39:41.308Z,23.32
2018-07-24T06:40:41.229Z,23.39
2018-07-24T06:41:41.215Z,23.42
2018-07-24T06:42:41.200Z,23.53
2018-07-24T06:43:41.188Z,23.51
2018-07-24T06:44:41.207Z,23.58
2018-07-24T06:45:41.166Z,23.63
2018-07-24T06:46:41.152Z,23.66
2018-07-24T06:47:41.140Z,23.63
2018-07-24T06:48:41.129Z,23.69
2018-07-24T06:49:41.120Z,23.78
2018-07-24T06:50:41.104Z,23.72
2018-07-24T06:51:41.239Z,23.76
2018-07-24T06:52:41.079Z,23.80
2018-07-24T06:53:41.068Z,23.90
2018-07-24T06:54:41.056Z,23.83
2018-07-24T06:55:41.098Z,23.91
2018-07-24T06:56:41.088Z,23.95
2018-07-24T06:57:41.036Z,23.91
2018-07-24T06:58:41.009Z,24.00
2018-07-24T06:59:40.995Z,24.10
2018-07-24T07:00:40.988Z,24.06
2018-07-24T07:01:40.974Z,24.15
2018-07-24T07:02:40.962Z,24.18
2018-07-24T07:03:40.951Z,24.20
2018-07-24T07:04:40.938Z,24.25
2018-07-24T07:05:40.927Z,24.27
2018-07-24T07:06:40.914Z,24.42
2018-07-24T07:07:40.977Z,24.45
2018-07-24T07:08:40.891Z,24.50
2018-07-24T07:09:40.879Z,24.55
2018-07-24T07:10:40.871Z,24.55
2018-07-24T07:11:40.856Z,24.46
2018-07-24T07:12:40.851Z,24.65
2018-07-24T07:13:40.834Z,24.69
2018-07-24T07:14:40.820Z,24.67
2018-07-24T07:15:40.808Z,24.76
2018-07-24T07:16:40.798Z,24.78
2018-07-24T07:17:40.797Z,24.88
2018-07-24T07:18:40.779Z,24.81
2018-07-24T07:19:40.765Z,24.93
2018-07-24T07:20:40.752Z,25.00
2018-07-24T07:21:40.741Z,25.08
2018-07-24T07:22:40.730Z,25.13
2018-07-24T07:23:40.726Z,25.24
2018-07-24T07:24:40.708Z,25.27
2018-07-24T07:25:40.707Z,25.35
2018-07-24T07:26:40.695Z,25.35
2018-07-24T07:27:40.672Z,25.32
2018-07-24T07:28:40.663Z,25.43
2018-07-24T07:29:40.649Z,25.55
2018-07-24T07:30:40.637Z,25.55
2018-07-24T07:31:40.632Z,25.65
2018-07-24T07:32:40.643Z,25.67
2018-07-24T07:33:40.608Z,25.76
2018-07-24T07:34:40.596Z,25.77
2018-07-24T07:35:40.580Z,25.87
2018-07-24T07:36:40.568Z,25.87
2018-07-24T07:37:40.558Z,26.05
2018-07-24T07:38:40.553Z,26.05
2018-07-24T07:39:40.532Z,26.18
2018-07-24T07:40:40.526Z,26.12
2018-07-24T07:41:40.514Z,26.21
2018-07-24T07:42:40.501Z,26.21
2018-07-24T07:43:40.488Z,26.32
2018-07-24T07:44:40.477Z,26.32
2018-07-24T07:45:40.466Z,26.37
2018-07-24T07:46:40.454Z,26.37
2018-07-24T07:47:40.447Z,26.52
2018-07-24T07:48:40.437Z,26.54
2018-07-24T07:49:40.426Z,26.60
2018-07-24T07:50:40.424Z,26.69
2018-07-24T07:51:40.400Z,26.81
2018-07-24T07:52:40.401Z,26.84
2018-07-24T07:53:40.386Z,26.92
2018-07-24T07:54:40.369Z,27.03
2018-07-24T07:55:40.358Z,26.97
2018-07-24T07:56:40.355Z,27.09
2018-07-24T07:57:40.346Z,27.07
2018-07-24T07:58:40.337Z,27.06
2018-07-24T07:59:40.313Z,27.18
2018-07-24T08:00:40.318Z,27.10
2018-07-24T08:01:40.292Z,27.21
2018-07-24T08:02:40.281Z,27.21
2018-07-24T08:03:40.271Z,27.28
2018-07-24T08:04:40.260Z,27.37
2018-07-24T08:05:40.254Z,27.37
2018-07-24T08:06:40.242Z,27.50
2018-07-24T08:07:40.230Z,27.59
2018-07-24T08:08:40.223Z,27.63
2018-07-24T08:09:40.216Z,27.63
2018-07-24T08:10:40.206Z,27.70
2018-07-24T08:11:40.186Z,27.67
2018-07-24T08:12:40.178Z,27.63
2018-07-24T08:13:40.169Z,27.66
2018-07-24T08:14:40.154Z,27.75
2018-07-24T08:15:40.150Z,27.75
2018-07-24T08:16:40.139Z,27.97
2018-07-24T08:17:40.123Z,28.06
2018-07-24T08:18:40.114Z,28.07
2018-07-24T08:19:40.105Z,28.15
2018-07-24T08:20:40.093Z,28.11
2018-07-24T08:21:40.083Z,28.12
2018-07-24T08:22:40.071Z,28.07
2018-07-24T08:23:40.064Z,28.09
2018-07-24T08:24:40.054Z,28.14
2018-07-24T08:25:40.054Z,28.21
2018-07-24T08:26:40.034Z,28.29
2018-07-24T08:27:40.049Z,28.25
2018-07-24T08:28:40.014Z,28.44
2018-07-24T08:29:40.002Z,28.37
2018-07-24T08:30:39.994Z,28.34
2018-07-24T08:31:39.986Z,28.37
2018-07-24T08:32:39.981Z,28.41
2018-07-24T08:33:40.022Z,28.51
2018-07-24T08:34:39.952Z,28.54
2018-07-24T08:35:39.950Z,28.58
2018-07-24T08:36:39.936Z,28.67
2018-07-24T08:37:39.924Z,28.71
2018-07-24T08:38:39.915Z,28.73
2018-07-24T08:39:39.905Z,28.77
2018-07-24T08:40:39.896Z,28.83
2018-07-24T08:41:39.887Z,28.85
2018-07-24T08:42:39.874Z,28.85
2018-07-24T08:43:39.864Z,28.83
2018-07-24T08:44:39.910Z,28.96
2018-07-24T08:45:39.847Z,28.88
2018-07-24T08:46:39.837Z,28.96
2018-07-24T08:47:39.825Z,29.06
2018-07-24T08:48:39.818Z,29.21
2018-07-24T08:49:39.814Z,29.18
2018-07-24T08:50:39.799Z,29.08
2018-07-24T08:51:39.792Z,29.11
2018-07-24T08:52:39.914Z,29.12
2018-07-24T08:53:40.178Z,29.16
2018-07-24T08:54:39.964Z,29.09
2018-07-24T08:55:39.959Z,29.15
2018-07-24T08:56:39.745Z,29.16
2018-07-24T08:57:39.768Z,29.30
2018-07-24T08:58:39.727Z,29.31
2018-07-24T08:59:39.716Z,29.37
2018-07-24T09:00:39.706Z,29.39
2018-07-24T09:01:39.696Z,29.31
2018-07-24T09:02:39.692Z,29.27
2018-07-24T09:03:39.710Z,29.33
2018-07-24T09:04:39.680Z,29.34
2018-07-24T09:05:39.657Z,29.42
2018-07-24T09:06:39.648Z,29.46
2018-07-24T09:07:39.639Z,29.57
2018-07-24T09:08:39.639Z,29.63
2018-07-24T09:09:39.622Z,29.57
2018-07-24T09:10:39.613Z,29.53
2018-07-24T09:11:39.616Z,29.63
2018-07-24T09:12:39.608Z,29.52
2018-07-24T09:13:39.588Z,29.58
2018-07-24T09:14:39.584Z,29.60
2018-07-24T09:15:39.616Z,29.61
2018-07-24T09:16:39.558Z,29.57
2018-07-24T09:17:39.549Z,29.64
2018-07-24T09:18:39.551Z,29.65
2018-07-24T09:19:39.532Z,29.71
2018-07-24T09:20:39.526Z,29.78
2018-07-24T09:21:39.519Z,29.78
2018-07-24T09:22:39.507Z,29.83
2018-07-24T09:23:39.494Z,29.83
2018-07-24T09:24:39.495Z,29.80
2018-07-24T09:25:39.479Z,29.76
2018-07-24T09:26:39.470Z,29.71
2018-07-24T09:27:39.460Z,29.61
2018-07-24T09:28:39.451Z,29.61
2018-07-24T09:29:39.443Z,29.52
2018-07-24T09:30:39.433Z,29.71
2018-07-24T09:31:39.433Z,29.71
2018-07-24T09:32:39.422Z,29.76
2018-07-24T09:33:39.409Z,29.87
2018-07-24T09:34:39.398Z,29.92
2018-07-24T09:35:39.387Z,29.94
2018-07-24T09:36:39.379Z,30.04
2018-07-24T09:37:39.374Z,30.10
2018-07-24T09:38:39.368Z,30.20
2018-07-24T09:39:39.376Z,30.17
2018-07-24T09:40:39.352Z,30.23
2018-07-24T09:41:39.338Z,30.31
2018-07-24T09:42:39.328Z,30.38
2018-07-24T09:43:39.326Z,30.27
2018-07-24T09:44:39.313Z,30.11
2018-07-24T09:45:39.304Z,30.00
2018-07-24T09:46:39.296Z,30.01
2018-07-24T09:47:39.284Z,29.90
2018-07-24T09:48:39.279Z,29.70
2018-07-24T09:49:39.268Z,29.73
2018-07-24T09:50:39.319Z,29.71
2018-07-24T09:51:39.253Z,29.90
2018-07-24T09:52:39.243Z,30.07
2018-07-24T09:53:39.241Z,29.95
2018-07-24T09:54:39.232Z,30.07
2018-07-24T09:55:39.217Z,30.13
2018-07-24T09:56:39.210Z,30.11
2018-07-24T09:57:39.199Z,30.15
2018-07-24T09:58:39.191Z,30.17
2018-07-24T09:59:39.188Z,30.20
2018-07-24T10:00:39.172Z,30.15
2018-07-24T10:01:39.172Z,30.10
2018-07-24T10:02:39.163Z,30.13
2018-07-24T10:03:39.147Z,30.04
2018-07-24T10:04:39.145Z,30.00
2018-07-24T10:05:39.136Z,30.01
2018-07-24T10:06:39.137Z,30.01
2018-07-24T10:07:39.122Z,30.13
2018-07-24T10:08:39.104Z,30.19
2018-07-24T10:09:39.106Z,29.95
2018-07-24T10:10:39.086Z,30.17
2018-07-24T10:11:39.086Z,30.15
2018-07-24T10:12:39.164Z,30.26
2018-07-24T10:13:39.066Z,30.39
2018-07-24T10:14:39.055Z,30.46
2018-07-24T10:15:39.046Z,30.72
2018-07-24T10:16:39.154Z,30.70
2018-07-24T10:17:39.032Z,30.57
2018-07-24T10:18:39.028Z,30.47
2018-07-24T10:19:39.013Z,30.39
2018-07-24T10:20:39.013Z,30.15
2018-07-24T10:21:39.000Z,30.13
2018-07-24T10:22:38.991Z,30.08
2018-07-24T10:23:38.978Z,30.15
2018-07-24T10:24:38.971Z,30.26
2018-07-24T10:25:38.963Z,30.31
2018-07-24T10:26:38.954Z,30.29
2018-07-24T10:27:38.946Z,30.34
2018-07-24T10:28:38.941Z,30.39
2018-07-24T10:29:38.930Z,30.53
2018-07-24T10:30:38.922Z,30.61
2018-07-24T10:31:38.918Z,30.70
2018-07-24T10:32:38.913Z,30.79
2018-07-24T10:33:38.902Z,30.58
2018-07-24T10:34:38.886Z,30.80
2018-07-24T10:35:38.879Z,30.65
2018-07-24T10:36:38.875Z,30.75
2018-07-24T10:37:38.868Z,30.80
2018-07-24T10:38:38.859Z,30.75
2018-07-24T10:39:38.847Z,30.69
2018-07-24T10:40:38.841Z,30.57
2018-07-24T10:41:38.831Z,30.58
2018-07-24T10:42:38.829Z,30.65
2018-07-24T10:43:38.823Z,30.65
2018-07-24T10:44:38.805Z,30.82
2018-07-24T10:45:38.798Z,30.75
2018-07-24T10:46:38.793Z,30.75
2018-07-24T10:47:38.790Z,30.80
2018-07-24T10:48:38.775Z,30.95
2018-07-24T10:49:38.770Z,31.02
2018-07-24T10:50:38.758Z,31.04
2018-07-24T10:51:38.756Z,30.98
2018-07-24T10:52:38.740Z,30.84
2018-07-24T10:53:38.733Z,30.75
2018-07-24T10:54:38.729Z,30.80
2018-07-24T10:55:38.718Z,30.83
2018-07-24T10:56:38.714Z,30.82
2018-07-24T10:57:38.706Z,30.91
2018-07-24T10:58:38.695Z,30.91
2018-07-24T10:59:38.693Z,30.84
2018-07-24T11:00:38.685Z,30.76
2018-07-24T11:01:38.672Z,30.77
2018-07-24T11:02:38.664Z,30.92
2018-07-24T11:03:38.659Z,30.83
2018-07-24T11:04:38.646Z,30.69
2018-07-24T11:05:38.639Z,30.65
2018-07-24T11:06:38.631Z,30.86
2018-07-24T11:07:38.641Z,31.06
2018-07-24T11:08:38.617Z,31.06
2018-07-24T11:09:38.608Z,30.89
2018-07-24T11:10:38.601Z,30.95
2018-07-24T11:11:38.601Z,31.14
2018-07-24T11:12:38.583Z,31.17
2018-07-24T11:13:38.575Z,31.21
2018-07-24T11:14:38.568Z,31.13
2018-07-24T11:15:38.570Z,31.19
2018-07-24T11:16:38.696Z,31.07
2018-07-24T11:17:38.548Z,31.19
2018-07-24T11:18:38.533Z,31.28
2018-07-24T11:19:38.534Z,31.35
2018-07-24T11:20:38.531Z,31.36
2018-07-24T11:21:38.515Z,31.48
2018-07-24T11:22:38.590Z,31.51
2018-07-24T11:23:38.496Z,31.53
2018-07-24T11:24:38.486Z,31.53
2018-07-24T11:25:38.489Z,31.48
2018-07-24T11:26:38.472Z,31.48
2018-07-24T11:27:38.466Z,31.46
2018-07-24T11:28:38.455Z,31.47
2018-07-24T11:29:38.464Z,31.34
2018-07-24T11:30:38.439Z,31.35
2018-07-24T11:31:38.435Z,31.36
2018-07-24T11:32:38.424Z,31.41
2018-07-24T11:33:38.426Z,31.47
2018-07-24T11:34:38.408Z,31.44
2018-07-24T11:35:38.517Z,31.48
2018-07-24T11:36:38.415Z,31.46
2018-07-24T11:37:38.384Z,31.46
2018-07-24T11:38:38.412Z,31.50
2018-07-24T11:39:38.372Z,31.51
2018-07-24T11:40:38.372Z,31.62
2018-07-24T11:41:38.356Z,31.72
2018-07-24T11:42:38.356Z,31.85
2018-07-24T11:43:38.338Z,31.96
2018-07-24T11:44:38.335Z,32.08
2018-07-24T11:45:38.363Z,32.07
2018-07-24T11:46:38.378Z,32.08
2018-07-24T11:47:38.319Z,32.10
2018-07-24T11:48:38.299Z,32.23
2018-07-24T11:49:38.291Z,32.44
2018-07-24T11:50:38.285Z,32.45
2018-07-24T11:51:38.307Z,32.48
2018-07-24T11:52:38.274Z,32.47
2018-07-24T11:53:38.274Z,32.43
2018-07-24T11:54:38.281Z,32.08
2018-07-24T11:55:38.248Z,31.51
2018-07-24T11:56:38.242Z,31.32
2018-07-24T11:57:38.260Z,31.51
2018-07-24T11:58:38.271Z,31.65
2018-07-24T11:59:38.220Z,31.73
2018-07-24T12:00:38.210Z,31.81
2018-07-24T12:01:38.206Z,31.75
2018-07-24T12:02:38.199Z,31.73
2018-07-24T12:03:38.297Z,31.81
2018-07-24T12:04:38.232Z,31.86
2018-07-24T12:05:38.181Z,31.80
2018-07-24T12:06:38.164Z,31.81
2018-07-24T12:07:38.160Z,31.85
2018-07-24T12:08:38.149Z,31.75
2018-07-24T12:09:38.141Z,31.73
2018-07-24T12:10:38.141Z,31.78
2018-07-24T12:11:38.142Z,31.81
2018-07-24T12:12:38.119Z,31.75
2018-07-24T12:13:38.122Z,31.93
2018-07-24T12:14:38.112Z,32.01
2018-07-24T12:15:38.104Z,32.28
2018-07-24T12:16:38.094Z,32.50
2018-07-24T12:17:38.092Z,32.59
2018-07-24T12:18:38.073Z,32.55
2018-07-24T12:19:38.134Z,32.44
2018-07-24T12:20:38.062Z,32.52
2018-07-24T12:21:38.052Z,32.47
2018-07-24T12:22:38.044Z,32.35
2018-07-24T12:23:38.039Z,32.25
2018-07-24T12:24:38.031Z,32.22
2018-07-24T12:25:38.022Z,32.19
2018-07-24T12:26:38.021Z,32.18
2018-07-24T12:27:38.019Z,32.11
2018-07-24T12:28:38.001Z,32.10
2018-07-24T12:29:37.992Z,32.30
2018-07-24T12:30:37.988Z,32.07
2018-07-24T12:31:37.982Z,32.26
2018-07-24T12:32:37.974Z,32.08
2018-07-24T12:33:37.964Z,32.06
2018-07-24T12:34:37.958Z,32.23
2018-07-24T12:35:37.950Z,32.32
2018-07-24T12:36:37.945Z,32.50
2018-07-24T12:37:37.935Z,32.65
2018-07-24T12:38:37.928Z,32.77
2018-07-24T12:39:37.921Z,32.89
2018-07-24T12:40:37.913Z,33.00
2018-07-24T12:41:37.910Z,33.04
2018-07-24T12:42:37.900Z,33.04
2018-07-24T12:43:37.907Z,32.94
2018-07-24T12:44:37.907Z,32.74
2018-07-24T12:45:37.882Z,32.70
2018-07-24T12:46:37.874Z,32.67
2018-07-24T12:47:37.865Z,32.59
2018-07-24T12:48:37.857Z,32.60
2018-07-24T12:49:37.862Z,32.55
2018-07-24T12:50:37.842Z,32.57
2018-07-24T12:51:37.837Z,32.52
2018-07-24T12:52:37.833Z,32.56